Time;durP1;ratioP1;P1;durP2;ratioP2;P2;SDS_P1;SDS_P2;PMS_P1;PMS_P2;Temp;Humidity;BMP_temperature;BMP_pressure;BME280_temperature;BME280_humidity;BME280_pressure;Samples;Min_cycle;Max_cycle;Signal;HPM_P1;HPM_P2
2022/03/16 00:05:51;;;;;;;23.57;16.97;;;7.80;98.10;;;;;;20904827;28;20660;-66
2022/03/16 00:15:53;;;;;;;26.40;17.57;;;7.70;98.00;;;;;;20924509;28;20636;-64
2022/03/16 00:25:55;;;;;;;24.33;17.50;;;7.50;97.80;;;;;;20924196;28;20219;-64
2022/03/16 00:35:57;;;;;;;25.40;17.47;;;7.50;98.00;;;;;;20929406;28;20769;-62
2022/03/16 00:46:00;;;;;;;23.00;17.07;;;7.40;97.90;;;;;;20924573;28;20262;-64
2022/03/16 00:56:02;;;;;;;23.73;17.43;;;7.10;97.50;;;;;;20921873;28;20232;-65
2022/03/16 01:06:04;;;;;;;22.23;16.90;;;7.10;97.70;;;;;;20921152;28;20258;-62
2022/03/16 01:16:06;;;;;;;24.33;16.80;;;6.90;97.70;;;;;;20920202;28;20244;-62
2022/03/16 01:26:08;;;;;;;29.60;18.80;;;6.70;97.40;;;;;;20919466;28;20213;-62
2022/03/16 01:36:09;;;;;;;50.20;19.70;;;6.80;97.80;;;;;;20919236;28;20309;-64
2022/03/16 01:46:11;;;;;;;38.83;17.43;;;6.80;97.30;;;;;;20918057;28;20337;-63
2022/03/16 01:56:15;;;;;;;87.70;16.90;;;6.70;97.20;;;;;;20917124;28;20715;-65
2022/03/16 02:06:17;;;;;;;80.93;15.67;;;6.70;97.50;;;;;;20911426;28;20197;-64
2022/03/16 02:16:19;;;;;;;156.43;18.27;;;6.60;97.40;;;;;;20914836;28;20777;-64
2022/03/16 02:26:25;;;;;;;106.10;17.83;;;6.50;97.90;;;;;;20915306;28;20203;-62
2022/03/16 02:36:27;;;;;;;132.97;18.00;;;6.40;98.30;;;;;;20914566;28;20231;-69
2022/03/16 02:46:29;;;;;;;91.97;16.90;;;6.30;98.20;;;;;;20914470;28;20204;-62
2022/03/16 02:56:31;;;;;;;57.97;16.20;;;6.40;98.50;;;;;;20912768;28;20236;-64
2022/03/16 03:06:33;;;;;;;104.17;15.33;;;6.40;98.80;;;;;;20912799;28;20199;-64
2022/03/16 03:16:36;;;;;;;37.60;13.80;;;6.20;98.30;;;;;;20912046;28;20243;-64
2022/03/16 03:26:38;;;;;;;52.23;14.50;;;6.20;98.20;;;;;;20915846;28;20208;-63
2022/03/16 03:36:41;;;;;;;58.47;14.43;;;6.20;98.50;;;;;;20928398;28;20236;-63
2022/03/16 03:46:43;;;;;;;37.43;13.60;;;6.10;98.20;;;;;;20927578;28;20215;-62
2022/03/16 03:56:45;;;;;;;29.13;13.47;;;6.00;98.10;;;;;;20925891;28;20239;-64
2022/03/16 04:06:46;;;;;;;117.07;15.73;;;6.00;98.20;;;;;;20918430;28;20216;-62
2022/03/16 04:16:48;;;;;;;24.77;14.97;;;6.10;98.00;;;;;;20925191;28;20244;-64
2022/03/16 04:26:50;;;;;;;33.87;13.63;;;6.00;97.90;;;;;;20924773;28;20208;-63
2022/03/16 04:36:52;;;;;;;69.83;15.17;;;5.90;97.40;;;;;;20926597;28;20236;-60
2022/03/16 04:46:53;;;;;;;25.40;13.63;;;5.80;97.60;;;;;;20925712;28;20211;-61
2022/03/16 04:56:56;;;;;;;64.53;14.67;;;5.80;97.90;;;;;;20923131;28;20297;-63
2022/03/16 05:06:57;;;;;;;39.93;14.03;;;5.70;97.70;;;;;;20923677;28;20269;-66
2022/03/16 05:16:59;;;;;;;71.63;13.47;;;5.80;97.40;;;;;;20927227;28;20248;-68
2022/03/16 05:27:02;;;;;;;33.77;13.30;;;5.70;97.40;;;;;;20919731;28;20287;-63
2022/03/16 05:37:05;;;;;;;93.50;12.57;;;5.60;97.30;;;;;;20919024;28;20719;-62
2022/03/16 05:47:06;;;;;;;69.43;13.47;;;5.50;97.20;;;;;;20918076;28;20553;-62
2022/03/16 05:57:11;;;;;;;134.43;13.87;;;5.30;97.40;;;;;;20916261;28;20282;-63
2022/03/16 06:07:13;;;;;;;74.37;13.00;;;5.20;97.30;;;;;;20854230;28;20270;-65
2022/03/16 06:17:14;;;;;;;48.97;12.30;;;5.30;97.70;;;;;;20831621;28;20310;-64
2022/03/16 06:27:16;;;;;;;65.57;13.17;;;5.30;97.60;;;;;;20832119;28;20295;-69
2022/03/16 06:37:18;;;;;;;37.33;12.90;;;5.50;97.60;;;;;;20830836;28;20228;-68
2022/03/16 06:47:20;;;;;;;46.90;13.43;;;5.50;97.70;;;;;;20831632;28;20208;-64
2022/03/16 06:57:21;;;;;;;35.93;14.50;;;5.70;97.50;;;;;;20869688;28;20236;-61
2022/03/16 07:07:34;;;;;;;53.07;13.00;;;5.70;97.30;;;;;;20896283;28;20703;-67
2022/03/16 07:17:37;;;;;;;49.80;14.10;;;5.80;97.30;;;;;;20828395;28;20251;-65
2022/03/16 07:27:40;;;;;;;93.47;14.37;;;5.90;97.30;;;;;;20828236;28;20208;-65
2022/03/16 07:37:42;;;;;;;38.00;12.83;;;5.90;97.40;;;;;;20827999;28;20240;-64
2022/03/16 07:47:46;;;;;;;36.87;12.60;;;6.10;97.40;;;;;;20871173;28;20627;-67
2022/03/16 07:57:47;;;;;;;29.63;13.53;;;6.30;97.30;;;;;;20907699;28;20251;-64
2022/03/16 08:07:50;;;;;;;26.30;13.23;;;6.40;97.10;;;;;;20907899;28;20279;-67
2022/03/16 08:17:51;;;;;;;24.47;13.43;;;6.40;97.10;;;;;;20918016;28;20236;-69
2022/03/16 08:27:53;;;;;;;22.77;17.03;;;6.60;97.20;;;;;;20919965;28;20432;-71
2022/03/16 08:37:55;;;;;;;20.40;13.57;;;7.10;97.30;;;;;;20923204;28;20351;-70
2022/03/16 08:47:57;;;;;;;24.37;14.80;;;7.30;97.10;;;;;;20921256;28;20217;-73
2022/03/16 08:57:58;;;;;;;27.67;16.43;;;7.40;96.80;;;;;;20921633;28;20243;-65
2022/03/16 09:08:00;;;;;;;23.20;16.20;;;7.40;96.80;;;;;;20921826;28;20780;-74
2022/03/16 09:18:03;;;;;;;24.40;16.37;;;7.60;97.10;;;;;;20921259;28;20237;-75
2022/03/16 09:28:04;;;;;;;24.60;17.43;;;7.90;97.40;;;;;;20919626;28;20439;-74
2022/03/16 09:38:07;;;;;;;29.07;16.47;;;8.30;97.40;;;;;;20911761;28;20289;-68
2022/03/16 09:48:09;;;;;;;26.93;15.67;;;8.50;97.60;;;;;;20868694;28;20270;-69
2022/03/16 09:58:11;;;;;;;24.00;16.00;;;8.90;97.50;;;;;;20862905;28;20225;-64
2022/03/16 10:08:14;;;;;;;24.83;15.80;;;9.10;97.50;;;;;;20917448;28;20231;-72
2022/03/16 10:18:19;;;;;;;22.03;16.17;;;9.80;97.50;;;;;;20921512;28;20239;-65
2022/03/16 10:28:29;;;;;;;23.53;15.83;;;10.10;96.90;;;;;;20914314;28;20261;-65
2022/03/16 10:38:37;;;;;;;20.93;15.60;;;10.60;96.30;;;;;;20900244;28;20288;-68
2022/03/16 10:48:39;;;;;;;22.40;15.27;;;10.80;95.80;;;;;;20915976;28;20212;-71
2022/03/16 10:58:43;;;;;;;22.33;15.77;;;11.00;95.60;;;;;;20912210;28;20233;-69
2022/03/16 11:08:45;;;;;;;20.20;15.83;;;11.30;94.80;;;;;;20911016;28;20236;-74
2022/03/16 11:18:51;;;;;;;24.70;15.77;;;11.50;94.30;;;;;;20911146;28;20654;-71
2022/03/16 11:28:59;;;;;;;22.83;15.80;;;11.60;94.00;;;;;;20910900;28;20212;-71
2022/03/16 11:39:03;;;;;;;18.37;15.43;;;11.80;93.20;;;;;;20847986;28;20235;-72
2022/03/16 11:49:05;;;;;;;20.80;15.73;;;12.20;92.00;;;;;;20834177;28;20278;-76
2022/03/16 11:59:16;;;;;;;19.90;15.10;;;12.50;91.50;;;;;;20842828;28;20661;-70
2022/03/16 12:09:36;;;;;;;21.57;15.73;;;12.80;90.90;;;;;;20842662;28;20274;-65
2022/03/16 12:19:39;;;;;;;21.83;16.73;;;13.10;90.40;;;;;;20922368;28;20245;-63
2022/03/16 12:29:46;;;;;;;19.23;16.30;;;13.30;90.00;;;;;;20923229;28;20217;-74
2022/03/16 12:39:48;;;;;;;20.67;15.80;;;13.70;86.30;;;;;;20922723;28;20236;-67
2022/03/16 12:49:50;;;;;;;20.43;16.30;;;13.70;86.70;;;;;;20921147;28;20811;-64
2022/03/16 12:59:57;;;;;;;21.43;17.73;;;14.00;83.70;;;;;;20919114;28;20236;-72
2022/03/16 13:10:06;;;;;;;21.27;16.27;;;14.30;82.10;;;;;;20838100;28;20227;-67
2022/03/16 13:20:08;;;;;;;22.17;16.40;;;14.40;82.70;;;;;;20837074;28;20532;-67
2022/03/16 13:30:12;;;;;;;20.73;15.97;;;14.70;79.00;;;;;;20836798;28;20212;-69
2022/03/16 13:40:18;;;;;;;21.83;16.37;;;14.60;77.50;;;;;;20833443;28;20263;-75
2022/03/16 13:50:22;;;;;;;19.37;15.57;;;14.70;76.50;;;;;;20838248;28;20201;-69
2022/03/16 14:00:24;;;;;;;17.73;15.30;;;14.80;76.50;;;;;;20916500;28;20250;-69
2022/03/16 14:10:26;;;;;;;18.03;15.13;;;15.20;74.70;;;;;;20903658;28;20294;-68
2022/03/16 14:20:30;;;;;;;18.33;15.00;;;15.30;75.10;;;;;;20877536;28;20256;-64
2022/03/16 14:30:36;;;;;;;19.90;14.73;;;15.40;73.00;;;;;;20874234;28;20228;-64
2022/03/16 14:40:39;;;;;;;19.13;15.67;;;15.40;74.10;;;;;;20902674;28;20204;-67
2022/03/16 14:50:41;;;;;;;18.70;15.30;;;15.30;74.30;;;;;;20912787;28;20652;-69
2022/03/16 15:00:44;;;;;;;22.47;16.23;;;15.20;74.10;;;;;;20911070;28;20263;-65
2022/03/16 15:10:45;;;;;;;19.83;15.63;;;14.90;73.00;;;;;;20874191;28;20240;-71
2022/03/16 15:20:47;;;;;;;20.90;16.53;;;14.80;73.50;;;;;;20828132;28;20721;-65
2022/03/16 15:30:49;;;;;;;21.73;15.83;;;14.60;73.60;;;;;;20829360;28;20231;-64
2022/03/16 15:51:11;;;;;;;22.03;16.10;;;14.30;74.10;;;;;;20827718;28;20687;-75
2022/03/16 16:01:12;;;;;;;26.50;16.90;;;14.30;74.20;;;;;;20827403;28;20212;-72
2022/03/16 16:11:14;;;;;;;23.30;15.50;;;14.10;74.90;;;;;;20895952;28;20304;-70
2022/03/16 16:21:17;;;;;;;20.40;16.00;;;14.10;75.80;;;;;;20994275;28;20206;-70
2022/03/16 16:31:19;;;;;;;22.23;17.03;;;14.00;76.00;;;;;;21017108;28;20257;-73
2022/03/16 16:41:21;;;;;;;20.87;16.17;;;13.80;75.90;;;;;;21008645;28;20214;-71
2022/03/16 16:51:23;;;;;;;20.03;15.97;;;13.80;76.60;;;;;;20886475;28;20236;-69
2022/03/16 17:01:25;;;;;;;28.47;18.97;;;13.70;76.40;;;;;;20893871;28;20207;-68
2022/03/16 17:11:30;;;;;;;23.07;16.83;;;13.60;77.20;;;;;;20854671;28;20232;-69
2022/03/16 17:21:44;;;;;;;24.47;15.80;;;13.40;77.00;;;;;;20920080;28;20290;-69
2022/03/16 17:31:46;;;;;;;22.40;16.83;;;13.20;76.40;;;;;;20914925;28;20238;-70
2022/03/16 17:52:07;;;;;;;24.27;17.83;;;13.00;77.50;;;;;;20916873;28;20242;-62
2022/03/16 18:02:09;;;;;;;30.13;18.67;;;12.70;78.10;;;;;;20905200;28;20208;-66
2022/03/16 18:22:33;;;;;;;29.13;20.50;;;12.60;79.60;;;;;;20832542;28;20610;-62
2022/03/16 18:32:34;;;;;;;29.07;20.03;;;12.50;80.10;;;;;;20832663;28;20707;-62
2022/03/16 18:42:37;;;;;;;31.63;19.83;;;12.30;80.20;;;;;;20832261;28;20660;-70
2022/03/16 18:52:40;;;;;;;29.03;19.07;;;12.20;80.80;;;;;;20830853;28;20314;-67
2022/03/16 19:02:41;;;;;;;25.57;18.07;;;12.20;81.50;;;;;;20828654;28;20250;-68
2022/03/16 19:23:05;;;;;;;27.07;19.37;;;12.00;82.00;;;;;;20860857;28;20206;-63
2022/03/16 19:33:06;;;;;;;29.73;19.80;;;11.70;82.10;;;;;;20909031;28;20608;-64
2022/03/16 19:43:08;;;;;;;22.80;17.47;;;11.60;82.60;;;;;;20908038;28;20208;-69
2022/03/16 19:53:11;;;;;;;26.97;17.30;;;11.40;83.40;;;;;;20910450;28;20289;-65
2022/03/16 20:03:16;;;;;;;28.70;18.97;;;11.40;84.10;;;;;;20907788;28;20216;-66
2022/03/16 20:13:27;;;;;;;29.77;21.10;;;11.20;84.80;;;;;;20916343;28;20277;-65
2022/03/16 20:23:30;;;;;;;28.43;19.53;;;11.00;85.00;;;;;;20875790;28;20217;-64
2022/03/16 20:33:32;;;;;;;25.43;18.87;;;10.80;85.70;;;;;;20896406;28;20284;-69
2022/03/16 20:43:34;;;;;;;26.00;18.50;;;10.70;86.20;;;;;;20838339;28;20279;-66
2022/03/16 20:53:35;;;;;;;29.60;19.90;;;10.60;86.90;;;;;;20887917;28;20235;-68
2022/03/16 21:03:37;;;;;;;31.43;22.13;;;10.50;87.20;;;;;;20920973;28;20215;-66
2022/03/16 21:13:42;;;;;;;24.60;18.03;;;10.50;87.60;;;;;;20919014;28;20823;-63
2022/03/16 21:23:44;;;;;;;27.37;18.33;;;10.30;89.10;;;;;;20917661;28;20204;-66
2022/03/16 21:33:46;;;;;;;32.60;19.67;;;10.30;89.80;;;;;;20917258;28;20692;-68
2022/03/16 21:43:48;;;;;;;27.90;18.53;;;10.30;90.10;;;;;;20915936;28;20211;-65
2022/03/16 21:53:50;;;;;;;33.87;19.83;;;10.30;90.30;;;;;;20915673;28;20638;-65
2022/03/16 22:03:51;;;;;;;30.23;20.93;;;10.30;90.30;;;;;;20915702;28;20262;-64
2022/03/16 22:13:54;;;;;;;30.60;20.97;;;10.30;90.40;;;;;;20921371;28;20265;-64
2022/03/16 22:23:58;;;;;;;29.30;20.47;;;10.20;90.60;;;;;;20945475;28;20230;-65
2022/03/16 22:34:00;;;;;;;28.00;19.23;;;10.20;90.30;;;;;;20918839;28;20231;-66
2022/03/16 22:44:02;;;;;;;28.87;20.07;;;10.20;90.60;;;;;;20916384;28;20655;-65
2022/03/16 22:54:03;;;;;;;41.43;25.70;;;10.10;90.90;;;;;;20913442;28;20250;-66
2022/03/16 23:04:05;;;;;;;30.00;21.47;;;10.00;91.00;;;;;;20913076;28;20342;-62
2022/03/16 23:14:07;;;;;;;29.47;20.33;;;10.00;90.80;;;;;;20910583;28;20338;-63
2022/03/16 23:24:09;;;;;;;35.53;21.67;;;10.10;90.40;;;;;;20834657;28;20213;-63
2022/03/16 23:34:11;;;;;;;29.87;21.53;;;10.10;90.60;;;;;;20828994;28;20235;-64
2022/03/16 23:44:12;;;;;;;30.43;21.90;;;10.10;90.20;;;;;;20833891;28;20295;-64
2022/03/16 23:54:14;;;;;;;32.67;23.63;;;10.00;90.20;;;;;;20844725;28;20300;-64
